Alfred Station, New York
Current Conditions -  °F | °C
As of 4:56 AM on Sunday 25 Jan 2015 (Local Time) from KELZ Reporting Station
Overcast Overcast  
Wind Chill: -10°   Ceiling: 2300
Heat Index: -3°   Visibility: 10mi
Dew Point: -8°   Wind: 21mph
Humidity: 69%   Direction: 300°WNW
Pressure: 29.6"   Gusts: 30mph
Location:  42.27°N, 77.76°W
Report Text: KELZ 250956Z AUTO 30018G26KT 10SM SCT018 BKN023 OVC044 M03/M08 A2960 RMK AO2 PK WND 31029/0910 UPB0859E15SNE0859 SLP052 P0000 T10281078
Loading
Personal Weather Stations






























Interactive Weather Map New forecast layout! Learn more

10-Day Weather Forecast

Advertisements
Track Severe Weather on mobile